createdAt,value
2023-05-10T00:00:16.393Z,13940.7695
2023-05-10T00:01:17.560Z,13942.3848
2023-05-10T00:02:19.022Z,13941.2305
2023-05-10T00:03:20.435Z,13943.9229
2023-05-10T00:04:21.912Z,13939.1543
2023-05-10T00:05:23.276Z,13942.0000
2023-05-10T00:06:25.295Z,13939.0000
2023-05-10T00:07:26.094Z,13944.6152
2023-05-10T00:08:27.552Z,13942.1543
2023-05-10T00:09:28.925Z,13944.6152
2023-05-10T00:10:30.366Z,13940.4619
2023-05-10T00:11:31.824Z,13944.3076
2023-05-10T00:12:33.201Z,13947.1543
2023-05-10T00:13:34.690Z,13946.8457
2023-05-10T00:14:36.034Z,13942.9229
2023-05-10T00:15:37.517Z,13955.5381
2023-05-10T00:16:38.972Z,13950.3848
2023-05-10T00:17:40.421Z,13940.0000
2023-05-10T00:18:41.631Z,13945.9229
2023-05-10T00:19:43.176Z,13947.3076
2023-05-10T00:20:44.589Z,13945.0771
2023-05-10T00:21:46.079Z,13960.6152
2023-05-10T00:22:47.486Z,13955.9229
2023-05-10T00:23:48.943Z,13946.3076
2023-05-10T00:24:50.321Z,13949.3076
2023-05-10T00:25:52.373Z,13951.9229
2023-05-10T00:26:53.140Z,13950.9229
2023-05-10T00:27:54.613Z,13968.9229
2023-05-10T00:28:55.940Z,13959.1543
2023-05-10T00:29:57.418Z,13951.3076
2023-05-10T00:30:58.849Z,13946.1543
2023-05-10T00:32:00.347Z,13949.3848
2023-05-10T00:33:01.744Z,13952.7695
2023-05-10T00:34:03.197Z,13963.7695
2023-05-10T00:35:04.600Z,13970.2305
2023-05-10T00:36:05.966Z,13960.0771
2023-05-10T00:37:07.385Z,13957.0771
2023-05-10T00:38:08.821Z,13944.3076
2023-05-10T00:39:10.163Z,13951.6152
2023-05-10T00:40:11.637Z,13954.0000
2023-05-10T00:41:13.821Z,13945.5381
2023-05-10T00:42:14.539Z,13963.9229
2023-05-10T00:43:15.873Z,13952.5381
2023-05-10T00:44:17.345Z,13950.3848
2023-05-10T00:45:18.862Z,13942.6924
2023-05-10T00:46:20.349Z,13949.3848
2023-05-10T00:47:21.700Z,13956.6152
2023-05-10T00:48:23.195Z,13968.1543
2023-05-10T00:49:24.548Z,13965.6152
2023-05-10T00:50:25.893Z,13952.4619
2023-05-10T00:51:27.378Z,13950.6152
2023-05-10T00:52:28.848Z,13943.6152
2023-05-10T00:53:30.190Z,13951.0000
2023-05-10T00:54:31.635Z,13962.4619
2023-05-10T00:55:33.033Z,13969.6152
2023-05-10T00:56:34.526Z,13966.3076
2023-05-10T00:57:35.887Z,13959.4619
2023-05-10T00:58:37.200Z,13958.6152
2023-05-10T00:59:38.711Z,13956.2305
2023-05-10T01:00:40.150Z,13955.3848
2023-05-10T01:01:41.601Z,13956.7695
2023-05-10T01:02:43.071Z,13957.2305
2023-05-10T01:03:44.399Z,13965.3848
2023-05-10T01:04:45.851Z,13959.9229
2023-05-10T01:05:47.242Z,13952.3076
2023-05-10T01:06:48.785Z,13955.5381
2023-05-10T01:07:50.124Z,13951.3076
2023-05-10T01:08:51.555Z,13957.3848
2023-05-10T01:09:52.917Z,13955.5381
2023-05-10T01:10:54.373Z,13969.0771
2023-05-10T01:11:55.815Z,13965.8457
2023-05-10T01:12:57.340Z,13954.6924
2023-05-10T01:13:58.704Z,13950.8457
2023-05-10T01:15:00.162Z,13951.4619
2023-05-10T01:16:01.504Z,13957.5381
2023-05-10T01:17:02.913Z,13957.0771
2023-05-10T01:18:04.317Z,13969.8457
2023-05-10T01:19:05.763Z,13969.0000
2023-05-10T01:20:07.144Z,13956.6152
2023-05-10T01:21:08.592Z,13955.2305
2023-05-10T01:22:09.993Z,13954.4619
2023-05-10T01:23:12.366Z,13955.0000
2023-05-10T01:24:12.837Z,13961.0000
2023-05-10T01:25:14.292Z,13962.1543
2023-05-10T01:26:15.720Z,13967.4619
2023-05-10T01:27:17.165Z,13954.7695
2023-05-10T01:28:18.543Z,13957.0771
2023-05-10T01:29:19.976Z,13955.0000
2023-05-10T01:30:22.187Z,13950.3076
2023-05-10T01:31:22.901Z,13959.7695
2023-05-10T01:32:24.281Z,13965.4619
2023-05-10T01:33:25.600Z,13970.2305
2023-05-10T01:34:27.062Z,13966.4619
2023-05-10T01:35:28.546Z,13955.0771
2023-05-10T01:36:29.962Z,13953.2305
2023-05-10T01:37:31.395Z,13956.3848
2023-05-10T01:38:32.762Z,13955.4619
2023-05-10T01:39:34.224Z,13963.3848
2023-05-10T01:40:35.598Z,13972.5381
2023-05-10T01:41:37.037Z,13975.2305
2023-05-10T01:42:38.477Z,13969.3848
2023-05-10T01:43:39.944Z,13954.7695
2023-05-10T01:44:41.290Z,13950.7695
2023-05-10T01:45:42.751Z,13956.6924
2023-05-10T01:46:44.157Z,13956.2305
2023-05-10T01:47:45.681Z,13962.6152
2023-05-10T01:48:47.043Z,13965.1543
2023-05-10T01:49:48.491Z,13976.7695
2023-05-10T01:50:49.755Z,13966.0771
2023-05-10T01:51:51.375Z,13958.8457
2023-05-10T01:52:53.327Z,13952.0000
2023-05-10T01:53:54.140Z,13962.5381
2023-05-10T01:54:55.503Z,13956.1543
2023-05-10T01:55:57.023Z,13963.6924
2023-05-10T01:56:58.436Z,13967.9229
2023-05-10T01:57:59.760Z,13973.3076
2023-05-10T01:59:01.152Z,13970.3848
2023-05-10T02:00:02.678Z,13959.5381
2023-05-10T02:01:04.065Z,13954.6152
2023-05-10T02:02:05.525Z,13955.6152
2023-05-10T02:03:07.026Z,13954.2305
2023-05-10T02:04:08.468Z,13965.7695
2023-05-10T02:05:09.686Z,13967.0771
2023-05-10T02:06:11.284Z,13984.0771
2023-05-10T02:07:12.584Z,13965.3848
2023-05-10T02:08:14.062Z,13958.6152
2023-05-10T02:09:15.484Z,13951.5381
2023-05-10T02:10:17.098Z,13950.9229
2023-05-10T02:11:18.192Z,13956.9229
2023-05-10T02:12:19.726Z,13963.2305
2023-05-10T02:13:21.251Z,13963.2305
2023-05-10T02:14:22.577Z,13972.0000
2023-05-10T02:15:24.028Z,13972.4619
2023-05-10T02:16:25.452Z,13961.2305
2023-05-10T02:17:26.836Z,13957.7695
2023-05-10T02:18:28.269Z,13955.6152
2023-05-10T02:19:29.782Z,13954.3848
2023-05-10T02:20:31.136Z,13957.8457
2023-05-10T02:21:32.555Z,13970.5381
2023-05-10T02:22:33.886Z,13980.2305
2023-05-10T02:23:35.381Z,13969.1543
2023-05-10T02:24:36.780Z,13959.4619
2023-05-10T02:25:38.092Z,13948.0771
2023-05-10T02:26:39.616Z,13947.0000
2023-05-10T02:27:41.115Z,13954.6152
2023-05-10T02:28:42.428Z,13962.3076
2023-05-10T02:29:43.936Z,13963.3848
2023-05-10T02:30:45.294Z,13978.2305
2023-05-10T02:31:46.741Z,13968.1543
2023-05-10T02:32:48.139Z,13963.8457
2023-05-10T02:33:49.582Z,13955.7695
2023-05-10T02:34:50.920Z,13951.3848
2023-05-10T02:35:52.407Z,13953.9229
2023-05-10T02:36:53.810Z,13963.4619
2023-05-10T02:37:55.279Z,13952.5381
2023-05-10T02:38:56.628Z,13963.1543
2023-05-10T02:39:58.130Z,13966.1543
2023-05-10T02:40:59.480Z,13965.8457
2023-05-10T02:42:00.830Z,13957.4619
2023-05-10T02:43:02.405Z,13953.0771
2023-05-10T02:44:03.750Z,13948.6152
2023-05-10T02:45:05.203Z,13954.1543
2023-05-10T02:46:06.631Z,13952.6152
2023-05-10T02:47:07.972Z,13960.5381
2023-05-10T02:48:09.538Z,13962.6924
2023-05-10T02:49:10.792Z,13968.8457
2023-05-10T02:50:12.307Z,13962.3848
2023-05-10T02:51:14.389Z,13955.8457
2023-05-10T02:52:15.157Z,13956.0771
2023-05-10T02:53:16.514Z,13951.3076
2023-05-10T02:54:17.888Z,13957.3076
2023-05-10T02:55:19.416Z,13953.7695
2023-05-10T02:56:20.916Z,13956.5381
2023-05-10T02:57:22.276Z,13960.3848
2023-05-10T02:58:23.737Z,13974.8457
2023-05-10T02:59:25.074Z,13966.3076
2023-05-10T03:00:26.638Z,13957.1543
2023-05-10T03:01:27.990Z,13948.7695
2023-05-10T03:02:29.346Z,13949.6924
2023-05-10T03:03:30.706Z,13952.0000
2023-05-10T03:04:32.294Z,13953.7695
2023-05-10T03:05:33.649Z,13954.5381
2023-05-10T03:06:35.027Z,13966.7695
2023-05-10T03:07:36.424Z,13971.4619
2023-05-10T03:08:37.963Z,13971.5381
2023-05-10T03:09:39.282Z,13966.3848
2023-05-10T03:10:40.648Z,13958.1543
2023-05-10T03:11:42.128Z,13952.5381
2023-05-10T03:12:43.595Z,13950.8457
2023-05-10T03:13:44.934Z,13958.0771
2023-05-10T03:14:46.388Z,13952.8457
2023-05-10T03:15:48.389Z,13964.7695
2023-05-10T03:16:49.346Z,13966.4619
2023-05-10T03:17:50.727Z,13962.3848
2023-05-10T03:18:52.157Z,13954.3848
2023-05-10T03:19:53.438Z,13952.6924
2023-05-10T03:20:54.988Z,13954.5381
2023-05-10T03:21:56.377Z,13959.5381
2023-05-10T03:22:57.817Z,13950.7695
2023-05-10T03:23:59.178Z,13954.6924
2023-05-10T03:25:00.555Z,13969.9229
2023-05-10T03:26:02.070Z,13965.1543
2023-05-10T03:27:03.519Z,13962.2305
2023-05-10T03:28:04.925Z,13954.0771
2023-05-10T03:29:06.322Z,13951.3076
2023-05-10T03:30:07.715Z,13949.2305
2023-05-10T03:31:09.139Z,13958.3076
2023-05-10T03:32:10.658Z,13949.0000
2023-05-10T03:33:12.068Z,13957.7695
2023-05-10T03:34:13.388Z,13966.8457
2023-05-10T03:35:14.858Z,13968.7695
2023-05-10T03:36:16.235Z,13967.3848
2023-05-10T03:37:17.813Z,13951.7695
2023-05-10T03:38:19.177Z,13950.3848
2023-05-10T03:39:20.581Z,13947.7695
2023-05-10T03:40:21.930Z,13955.5381
2023-05-10T03:41:23.435Z,13949.0000
2023-05-10T03:42:24.812Z,13954.9229
2023-05-10T03:43:26.243Z,13959.0000
2023-05-10T03:44:27.628Z,13973.6152
2023-05-10T03:45:28.938Z,13962.0771
2023-05-10T03:46:30.492Z,13955.3076
2023-05-10T03:47:31.976Z,13950.1543
2023-05-10T03:48:33.326Z,13949.2305
2023-05-10T03:49:34.780Z,13952.2305
2023-05-10T03:50:36.134Z,13954.7695
2023-05-10T03:51:37.567Z,13957.5381
2023-05-10T03:52:39.936Z,13971.6924
2023-05-10T03:53:40.378Z,13964.2305
2023-05-10T03:54:41.844Z,13961.0000
2023-05-10T03:55:43.272Z,13956.8457
2023-05-10T03:56:44.671Z,13948.1543
2023-05-10T03:57:46.161Z,13958.0000
2023-05-10T03:58:47.525Z,13956.0771
2023-05-10T03:59:48.941Z,13958.8457
2023-05-10T04:00:50.326Z,13971.0000
2023-05-10T04:01:51.814Z,13954.1543
2023-05-10T04:02:53.314Z,13959.1543
2023-05-10T04:03:54.750Z,13953.8457
2023-05-10T04:04:56.005Z,13959.6152
2023-05-10T04:05:57.532Z,13954.2305
2023-05-10T04:06:58.910Z,13956.7695
2023-05-10T04:08:00.402Z,13960.1543
2023-05-10T04:09:02.375Z,13971.3848
2023-05-10T04:10:03.214Z,13966.9229
2023-05-10T04:11:04.492Z,13958.4619
2023-05-10T04:12:06.491Z,13952.0000
2023-05-10T04:13:07.699Z,13958.8457
2023-05-10T04:14:08.994Z,13958.0771
2023-05-10T04:15:10.283Z,13957.6152
2023-05-10T04:16:11.823Z,13966.8457
2023-05-10T04:17:13.169Z,13971.0000
2023-05-10T04:18:14.621Z,13962.4619
2023-05-10T04:19:16.028Z,13958.2305
2023-05-10T04:20:17.625Z,13946.6152
2023-05-10T04:21:18.825Z,13956.7695
2023-05-10T04:22:20.294Z,13968.0771
2023-05-10T04:23:21.765Z,13956.3076
2023-05-10T04:24:23.155Z,13965.2305
2023-05-10T04:25:24.588Z,13975.3076
2023-05-10T04:26:25.923Z,13965.7695
2023-05-10T04:27:27.372Z,13966.0000
2023-05-10T04:28:28.773Z,13953.2305
2023-05-10T04:29:30.201Z,13950.3076
2023-05-10T04:30:31.676Z,13956.6924
2023-05-10T04:31:33.133Z,13955.2305
2023-05-10T04:32:35.040Z,13957.7695
2023-05-10T04:33:35.925Z,13966.4619
2023-05-10T04:34:37.382Z,13965.3848
2023-05-10T04:35:38.850Z,13960.5381
2023-05-10T04:36:40.224Z,13948.0771
2023-05-10T04:37:41.673Z,13947.1543
2023-05-10T04:38:43.025Z,13963.9229
2023-05-10T04:39:45.459Z,13950.9229
2023-05-10T04:40:45.899Z,13962.2305
2023-05-10T04:41:47.327Z,13952.4619
2023-05-10T04:42:48.745Z,13966.8457
2023-05-10T04:43:50.178Z,13958.6924
2023-05-10T04:44:51.586Z,13951.2305
2023-05-10T04:45:53.036Z,13946.9229
2023-05-10T04:46:54.511Z,13957.3848
2023-05-10T04:47:56.001Z,13950.6152
2023-05-10T04:48:57.334Z,13956.0000
2023-05-10T04:49:58.826Z,13966.1543
2023-05-10T04:51:00.142Z,13973.2305
2023-05-10T04:52:01.671Z,13960.2305
2023-05-10T04:53:03.071Z,13947.0000
2023-05-10T04:54:06.626Z,13953.0771
2023-05-10T04:55:06.907Z,13947.4619
2023-05-10T04:56:07.266Z,13954.6152
2023-05-10T04:57:08.670Z,13954.5381
2023-05-10T04:58:10.128Z,13971.6924
2023-05-10T04:59:11.583Z,13963.6152
2023-05-10T05:00:12.999Z,13950.2305
2023-05-10T05:01:14.383Z,13946.6152
2023-05-10T05:02:15.890Z,13952.8457
2023-05-10T05:03:17.266Z,13952.3076
2023-05-10T05:04:18.618Z,13956.8457
2023-05-10T05:05:20.068Z,13960.6152
2023-05-10T05:06:21.526Z,13959.2305
2023-05-10T05:07:22.845Z,13952.9229
2023-05-10T05:08:24.385Z,13941.6152
2023-05-10T05:09:25.728Z,13945.6924
2023-05-10T05:10:27.134Z,13946.6152
2023-05-10T05:11:29.465Z,13951.4619
2023-05-10T05:12:30.034Z,13954.2305
2023-05-10T05:13:31.458Z,13963.4619
2023-05-10T05:14:32.849Z,13963.0771
2023-05-10T05:15:34.265Z,13952.4619
2023-05-10T05:16:35.865Z,13954.2305
2023-05-10T05:17:37.219Z,13947.5381
2023-05-10T05:18:38.584Z,13952.7695
2023-05-10T05:19:39.990Z,13950.9229
2023-05-10T05:20:42.557Z,13947.1543
2023-05-10T05:21:42.867Z,13963.4619
2023-05-10T05:22:44.298Z,13956.2305
2023-05-10T05:23:45.678Z,13950.3848
2023-05-10T05:24:47.198Z,13946.7695
2023-05-10T05:25:48.525Z,13955.2305
2023-05-10T05:26:50.057Z,13955.9229
2023-05-10T05:27:51.423Z,13949.6924
2023-05-10T05:28:52.767Z,13960.5381
2023-05-10T05:29:54.239Z,13956.9229
2023-05-10T05:30:55.859Z,13949.2305
2023-05-10T05:31:57.237Z,13945.4619
2023-05-10T05:32:58.541Z,13954.3076
2023-05-10T05:33:59.956Z,13957.8457
2023-05-10T05:35:01.449Z,13949.0000
2023-05-10T05:36:02.876Z,13956.6152
2023-05-10T05:37:04.252Z,13957.0000
2023-05-10T05:38:05.653Z,13955.1543
2023-05-10T05:39:06.924Z,13944.3076
2023-05-10T05:40:08.373Z,13947.0771
2023-05-10T05:41:09.937Z,13949.8457
2023-05-10T05:42:11.409Z,13948.0771
2023-05-10T05:43:13.230Z,13952.3076
2023-05-10T05:44:14.071Z,13960.0771
2023-05-10T05:45:15.896Z,13955.6152
2023-05-10T05:46:17.033Z,13941.3076
2023-05-10T05:47:18.462Z,13951.2305
2023-05-10T05:48:19.802Z,13953.4619
2023-05-10T05:49:21.264Z,13944.8457
2023-05-10T05:50:22.649Z,13954.0771
2023-05-10T05:51:24.142Z,13959.0771
2023-05-10T05:52:25.602Z,13958.2305
2023-05-10T05:53:26.905Z,13945.1543
2023-05-10T05:54:28.330Z,13952.0771
2023-05-10T05:55:29.687Z,13953.1543
2023-05-10T05:56:31.251Z,13948.3076
2023-05-10T05:57:32.668Z,13947.0771
2023-05-10T05:58:34.189Z,13955.4619
2023-05-10T05:59:35.480Z,13956.3848
2023-05-10T06:00:36.880Z,13945.9229
2023-05-10T06:01:38.371Z,13941.0000
2023-05-10T06:02:39.940Z,13943.1543
2023-05-10T06:03:41.208Z,13955.6152
2023-05-10T06:04:44.689Z,13953.1543
2023-05-10T06:05:44.110Z,13941.6152
2023-05-10T06:06:45.405Z,13935.4619
2023-05-10T06:07:46.852Z,13928.5381
2023-05-10T06:08:48.219Z,13915.2305
2023-05-10T06:09:49.686Z,13907.0771
2023-05-10T06:10:51.096Z,13894.3076
2023-05-10T06:11:52.543Z,13890.3076
2023-05-10T06:12:53.928Z,13897.0000
2023-05-10T06:13:55.253Z,13907.0000
2023-05-10T06:14:56.731Z,13907.3076
2023-05-10T06:15:58.144Z,13893.0000
2023-05-10T06:16:59.626Z,13882.8457
2023-05-10T06:18:01.046Z,13872.5381
2023-05-10T06:19:02.333Z,13864.2305
2023-05-10T06:20:03.856Z,13862.0000
2023-05-10T06:21:05.186Z,13858.6152
2023-05-10T06:22:06.719Z,13858.0771
2023-05-10T06:23:08.043Z,13854.0000
2023-05-10T06:24:09.655Z,13847.3076
2023-05-10T06:25:10.879Z,13841.1543
2023-05-10T06:26:12.309Z,13838.0771
2023-05-10T06:27:13.812Z,13848.0000
2023-05-10T06:28:15.234Z,13838.8457
2023-05-10T06:29:16.609Z,13831.0771
2023-05-10T06:30:18.222Z,13820.6152
2023-05-10T06:31:19.518Z,13806.9229
2023-05-10T06:32:20.920Z,13815.2305
2023-05-10T06:33:22.311Z,13844.0771
2023-05-10T06:34:23.755Z,13832.7695
2023-05-10T06:35:25.159Z,13816.5381
2023-05-10T06:36:26.689Z,13809.1543
2023-05-10T06:37:28.147Z,13799.0771
2023-05-10T06:38:29.641Z,13797.1543
2023-05-10T06:39:30.878Z,13818.2305
2023-05-10T06:40:32.847Z,13829.9229
2023-05-10T06:41:33.689Z,13809.4619
2023-05-10T06:42:35.311Z,13796.4619
2023-05-10T06:43:36.631Z,13783.3848
2023-05-10T06:44:37.922Z,13784.6152
2023-05-10T06:45:39.346Z,13815.8457
2023-05-10T06:46:40.772Z,13807.8457
2023-05-10T06:47:42.255Z,13791.0000
2023-05-10T06:48:43.718Z,13776.3076
2023-05-10T06:49:45.009Z,13771.3848
2023-05-10T06:50:46.534Z,13797.7695
2023-05-10T06:51:47.913Z,13802.6924
2023-05-10T06:52:50.214Z,13783.4619
2023-05-10T06:53:51.142Z,13766.1543
2023-05-10T06:54:52.216Z,13768.3076
2023-05-10T06:55:53.586Z,13800.2305
2023-05-10T06:56:55.057Z,13798.2305
2023-05-10T06:57:56.494Z,13773.0771
2023-05-10T06:58:57.916Z,13757.3076
2023-05-10T06:59:59.286Z,13760.7695
2023-05-10T07:01:00.804Z,13793.0000
2023-05-10T07:02:02.180Z,13789.0000
2023-05-10T07:03:03.644Z,13767.6924
2023-05-10T07:04:04.960Z,13756.0000
2023-05-10T07:05:06.474Z,13770.4619
2023-05-10T07:06:11.356Z,13801.6152
2023-05-10T07:07:09.323Z,13781.0830
2023-05-10T07:08:10.747Z,13760.5381
2023-05-10T07:09:12.213Z,13748.3076
2023-05-10T07:10:13.531Z,13778.4619
2023-05-10T07:11:14.998Z,13803.0000
2023-05-10T07:12:16.729Z,13776.8457
2023-05-10T07:13:17.915Z,13760.3848
2023-05-10T07:14:19.287Z,13754.0771
2023-05-10T07:15:20.763Z,13789.4619
2023-05-10T07:16:22.058Z,13797.0771
2023-05-10T07:17:23.593Z,13771.5381
2023-05-10T07:18:24.926Z,13753.1543
2023-05-10T07:19:26.388Z,13758.8457
2023-05-10T07:20:27.814Z,13810.7695
2023-05-10T07:21:29.293Z,13810.6152
2023-05-10T07:22:30.596Z,13790.4619
2023-05-10T07:23:32.123Z,13776.4619
2023-05-10T07:24:33.456Z,13770.9229
2023-05-10T07:25:34.932Z,13800.1543
2023-05-10T07:26:36.404Z,13830.3848
2023-05-10T07:27:37.743Z,13813.8457
2023-05-10T07:28:39.300Z,13800.1543
2023-05-10T07:29:40.615Z,13788.8457
2023-05-10T07:30:42.089Z,13783.1543
2023-05-10T07:31:43.433Z,13800.8457
2023-05-10T07:32:44.896Z,13836.0000
2023-05-10T07:33:46.283Z,13823.4619
2023-05-10T07:34:47.732Z,13813.9229
2023-05-10T07:35:49.138Z,13802.8457
2023-05-10T07:36:50.571Z,13795.3848
2023-05-10T07:37:51.997Z,13787.9229
2023-05-10T07:38:53.433Z,13817.2305
2023-05-10T07:39:54.922Z,13849.6152
2023-05-10T07:40:56.314Z,13834.5381
2023-05-10T07:41:57.589Z,13823.3848
2023-05-10T07:42:59.162Z,13816.2305
2023-05-10T07:44:00.589Z,13808.1543
2023-05-10T07:45:02.032Z,13803.2305
2023-05-10T07:46:03.501Z,13801.6152
2023-05-10T07:47:04.803Z,13841.7695
2023-05-10T07:48:06.387Z,13846.6152
2023-05-10T07:49:07.585Z,13833.0771
2023-05-10T07:50:09.217Z,13823.7695
2023-05-10T07:51:10.630Z,13819.5381
2023-05-10T07:52:12.051Z,13810.7695
2023-05-10T07:53:13.424Z,13807.0000
2023-05-10T07:54:14.887Z,13817.2305
2023-05-10T07:55:16.533Z,13850.1543
2023-05-10T07:56:17.741Z,13840.5381
2023-05-10T07:57:19.013Z,13832.3848
2023-05-10T07:58:20.498Z,13824.2305
2023-05-10T07:59:21.980Z,13816.0000
2023-05-10T08:00:23.470Z,13812.6152
2023-05-10T08:01:24.819Z,13810.4619
2023-05-10T08:02:26.407Z,13814.9229
2023-05-10T08:03:27.759Z,13850.8457
2023-05-10T08:04:29.372Z,13842.0771
2023-05-10T08:05:30.535Z,13833.0771
2023-05-10T08:06:32.062Z,13823.5381
2023-05-10T08:07:33.399Z,13815.6152
2023-05-10T08:08:34.796Z,13808.4619
2023-05-10T08:09:36.447Z,13804.1543
2023-05-10T08:10:37.708Z,13835.9229
2023-05-10T08:11:39.092Z,13850.9229
2023-05-10T08:12:40.622Z,13839.0000
2023-05-10T08:13:41.825Z,13828.8457
2023-05-10T08:14:43.706Z,13818.3076
2023-05-10T08:15:44.798Z,13814.0771
2023-05-10T08:16:46.244Z,13807.4619
2023-05-10T08:17:47.595Z,13835.6152
2023-05-10T08:18:49.118Z,13860.0771
2023-05-10T08:19:50.416Z,13844.0000
2023-05-10T08:20:51.821Z,13833.0000
2023-05-10T08:21:53.357Z,13820.3848
2023-05-10T08:22:54.823Z,13813.0000
2023-05-10T08:23:56.245Z,13806.0771
2023-05-10T08:24:57.669Z,13808.6924
2023-05-10T08:25:59.034Z,13846.0000
2023-05-10T08:27:00.496Z,13845.1543
2023-05-10T08:28:01.876Z,13833.1543
2023-05-10T08:29:03.291Z,13820.3076
2023-05-10T08:30:04.726Z,13812.0771
2023-05-10T08:31:06.289Z,13800.0771
2023-05-10T08:32:07.623Z,13794.4619
2023-05-10T08:33:08.985Z,13812.8457
2023-05-10T08:34:10.417Z,13837.0771
2023-05-10T08:35:11.841Z,13818.3848
2023-05-10T08:36:13.355Z,13809.0771
2023-05-10T08:37:14.792Z,13801.7695
2023-05-10T08:38:16.098Z,13795.0000
2023-05-10T08:39:29.383Z,13792.5381
2023-05-10T08:40:19.071Z,13798.2500
2023-05-10T08:41:20.440Z,13841.6924
2023-05-10T08:42:22.185Z,13836.9229
2023-05-10T08:43:23.225Z,13824.1543
2023-05-10T08:44:24.689Z,13817.3076
2023-05-10T08:45:26.196Z,13812.1543
2023-05-10T08:46:27.715Z,13806.3076
2023-05-10T08:47:29.053Z,13802.8457
2023-05-10T08:48:30.726Z,13803.2305
2023-05-10T08:49:32.011Z,13837.3076
2023-05-10T08:50:33.432Z,13845.3076
2023-05-10T08:51:34.835Z,13835.2305
2023-05-10T08:52:36.446Z,13826.7695
2023-05-10T08:53:37.695Z,13816.0000
2023-05-10T08:54:39.080Z,13814.0000
2023-05-10T08:55:40.321Z,13810.2305
2023-05-10T08:56:42.055Z,13810.2305
2023-05-10T08:57:43.373Z,13833.6152
2023-05-10T08:58:44.722Z,13854.3076
2023-05-10T08:59:46.221Z,13843.6924
2023-05-10T09:00:48.158Z,13835.4619
2023-05-10T09:01:49.124Z,13826.6924
2023-05-10T09:02:50.689Z,13820.7695
2023-05-10T09:03:51.811Z,13819.7695
2023-05-10T09:04:53.354Z,13817.8457
2023-05-10T09:05:54.729Z,13824.0771
2023-05-10T09:06:56.194Z,13857.3848
2023-05-10T09:07:57.533Z,13847.8457
2023-05-10T09:08:59.291Z,13838.7695
2023-05-10T09:10:00.372Z,13829.8457
2023-05-10T09:11:01.761Z,13823.8457
2023-05-10T09:12:03.305Z,13819.6152
2023-05-10T09:13:04.840Z,13816.3848
2023-05-10T09:14:06.045Z,13850.1543
2023-05-10T09:15:07.460Z,13856.3848
2023-05-10T09:16:20.439Z,13839.1543
2023-05-10T09:17:10.503Z,13827.5830
2023-05-10T09:18:11.857Z,13820.6924
2023-05-10T09:19:13.385Z,13817.1543
2023-05-10T09:20:14.494Z,13810.8457
2023-05-10T09:21:16.217Z,13827.3848
2023-05-10T09:22:17.456Z,13856.4619
2023-05-10T09:23:18.761Z,13845.4619
2023-05-10T09:24:20.348Z,13832.2305
2023-05-10T09:25:21.793Z,13821.7695
2023-05-10T09:26:23.058Z,13824.3076
2023-05-10T09:27:24.776Z,13816.0000
2023-05-10T09:28:26.133Z,13814.1543
2023-05-10T09:29:27.615Z,13848.6152
2023-05-10T09:30:28.786Z,13860.1543
2023-05-10T09:31:30.589Z,13844.4619
2023-05-10T09:32:31.779Z,13835.3848
2023-05-10T09:33:33.402Z,13830.3848
2023-05-10T09:34:34.531Z,13821.5381
2023-05-10T09:35:35.848Z,13818.3076
2023-05-10T09:36:37.707Z,13816.6152
2023-05-10T09:37:38.679Z,13846.4619
2023-05-10T09:38:40.405Z,13855.0771
2023-05-10T09:39:41.631Z,13843.6924
2023-05-10T09:40:43.038Z,13833.6152
2023-05-10T09:41:44.532Z,13825.6152
2023-05-10T09:42:46.231Z,13819.8457
2023-05-10T09:43:47.525Z,13816.6924
2023-05-10T09:44:49.109Z,13832.4619
2023-05-10T09:45:50.174Z,13853.4619
2023-05-10T09:46:51.746Z,13847.7695
2023-05-10T09:47:53.214Z,13833.7695
2023-05-10T09:48:54.503Z,13824.9229
2023-05-10T09:49:55.864Z,13818.4619
2023-05-10T09:50:57.395Z,13816.3848
2023-05-10T09:51:58.822Z,13826.2305
2023-05-10T09:53:00.195Z,13853.6924
2023-05-10T09:54:01.683Z,13845.6924
2023-05-10T09:55:02.993Z,13837.7695
2023-05-10T09:56:04.514Z,13833.2305
2023-05-10T09:57:05.931Z,13830.5381
2023-05-10T09:58:07.360Z,13793.3848
2023-05-10T09:59:08.895Z,13682.0771
2023-05-10T10:00:10.143Z,13700.0000
2023-05-10T10:01:12.015Z,13724.5381
2023-05-10T10:02:13.186Z,13721.2305
2023-05-10T10:03:14.457Z,13718.0000
2023-05-10T10:04:15.916Z,13716.4619
2023-05-10T10:05:17.717Z,13715.1543
2023-05-10T10:06:26.802Z,13715.5381
2023-05-10T10:07:20.180Z,13747.5830
2023-05-10T10:08:22.334Z,13773.5381
2023-05-10T10:09:23.210Z,13764.5381
2023-05-10T10:10:24.336Z,13766.0771
2023-05-10T10:11:25.782Z,13753.6152
2023-05-10T10:12:27.338Z,13752.6152
2023-05-10T10:13:28.900Z,13753.6152
2023-05-10T10:14:30.250Z,13752.3076
2023-05-10T10:15:31.555Z,13770.0771
2023-05-10T10:16:33.023Z,13783.8457
2023-05-10T10:17:34.394Z,13772.8457
2023-05-10T10:18:35.781Z,13768.3076
2023-05-10T10:19:37.604Z,13764.9229
2023-05-10T10:20:38.587Z,13761.5381
2023-05-10T10:21:40.161Z,13760.3076
2023-05-10T10:22:41.494Z,13779.4619
2023-05-10T10:23:43.074Z,13794.5381
2023-05-10T10:24:44.508Z,13792.6924
2023-05-10T10:25:45.814Z,13783.0000
2023-05-10T10:26:47.262Z,13780.3848
2023-05-10T10:27:48.604Z,13776.8457
2023-05-10T10:28:50.323Z,13776.0771
2023-05-10T10:29:51.511Z,13793.4619
2023-05-10T10:30:53.041Z,13810.7695
2023-05-10T10:31:54.297Z,13805.0771
2023-05-10T10:32:55.699Z,13798.8457
2023-05-10T10:33:57.176Z,13794.1543
2023-05-10T10:34:58.738Z,13789.7695
2023-05-10T10:35:59.968Z,13785.7695
2023-05-10T10:37:01.445Z,13798.6924
2023-05-10T10:38:02.859Z,13824.1543
2023-05-10T10:39:04.607Z,13815.1543
2023-05-10T10:40:05.714Z,13806.3848
2023-05-10T10:41:07.176Z,13801.0000
2023-05-10T10:42:08.454Z,13798.0000
2023-05-10T10:43:10.154Z,13791.0000
2023-05-10T10:44:11.735Z,13799.6924
2023-05-10T10:45:12.903Z,13826.3076
2023-05-10T10:46:14.284Z,13825.8457
2023-05-10T10:47:15.625Z,13814.0771
2023-05-10T10:48:17.092Z,13805.5381
2023-05-10T10:49:18.611Z,13805.2305
2023-05-10T10:50:20.035Z,13800.0000
2023-05-10T10:51:21.342Z,13815.5381
2023-05-10T10:52:22.788Z,13839.2305
2023-05-10T10:53:24.281Z,13829.3076
2023-05-10T10:54:25.716Z,13816.3076
2023-05-10T10:55:27.197Z,13809.3076
2023-05-10T10:56:28.480Z,13810.5381
2023-05-10T10:57:29.910Z,13802.6152
2023-05-10T10:58:31.257Z,13819.6924
2023-05-10T10:59:32.734Z,13840.0771
2023-05-10T11:00:34.220Z,13830.6924
2023-05-10T11:01:35.700Z,13823.7695
2023-05-10T11:02:37.105Z,13813.1543
2023-05-10T11:03:38.400Z,13810.9229
2023-05-10T11:04:40.122Z,13806.4619
2023-05-10T11:05:41.527Z,13834.6924
2023-05-10T11:06:42.617Z,13852.0000
2023-05-10T11:07:44.413Z,13840.0771
2023-05-10T11:08:45.746Z,13827.2305
2023-05-10T11:09:48.166Z,13815.6152
2023-05-10T11:10:48.642Z,13806.5381
2023-05-10T11:11:50.230Z,13805.1543
2023-05-10T11:12:51.142Z,13823.3076
2023-05-10T11:13:52.663Z,13841.9229
2023-05-10T11:14:54.038Z,13831.8457
2023-05-10T11:15:55.528Z,13817.6152
2023-05-10T11:16:56.924Z,13806.2305
2023-05-10T11:17:58.340Z,13799.9229
2023-05-10T11:18:59.771Z,13813.9229
2023-05-10T11:20:01.170Z,13846.1543
2023-05-10T11:21:02.664Z,13841.4619